sensor_id;sensor_type;location;lat;lon;timestamp;P1;durP1;ratioP1;P2;durP2;ratioP2
76576;SDS011;65441;44.748;37.600;2024-01-30T00:01:17;2.53;;;0.80;;
76576;SDS011;65441;44.748;37.600;2024-01-30T00:03:47;4.93;;;1.45;;
76576;SDS011;65441;44.748;37.600;2024-01-30T00:06:18;3.83;;;1.52;;
76576;SDS011;65441;44.748;37.600;2024-01-30T00:08:50;5.53;;;1.70;;
76576;SDS011;65441;44.748;37.600;2024-01-30T00:11:21;6.07;;;1.83;;
76576;SDS011;65441;44.748;37.600;2024-01-30T00:13:53;4.28;;;1.45;;
76576;SDS011;65441;44.748;37.600;2024-01-30T00:16:27;1.80;;;0.70;;
76576;SDS011;65441;44.748;37.600;2024-01-30T00:18:58;2.45;;;0.90;;
76576;SDS011;65441;44.748;37.600;2024-01-30T00:21:29;4.50;;;1.08;;
76576;SDS011;65441;44.748;37.600;2024-01-30T00:23:59;3.47;;;1.02;;
76576;SDS011;65441;44.748;37.600;2024-01-30T00:26:28;2.00;;;0.82;;
76576;SDS011;65441;44.748;37.600;2024-01-30T00:28:58;3.90;;;1.50;;
76576;SDS011;65441;44.748;37.600;2024-01-30T00:33:56;5.50;;;1.55;;
76576;SDS011;65441;44.748;37.600;2024-01-30T00:36:26;4.60;;;2.00;;
76576;SDS011;65441;44.748;37.600;2024-01-30T00:38:56;3.28;;;1.08;;
76576;SDS011;65441;44.748;37.600;2024-01-30T00:41:28;2.05;;;0.90;;
76576;SDS011;65441;44.748;37.600;2024-01-30T00:43:58;3.92;;;0.93;;
76576;SDS011;65441;44.748;37.600;2024-01-30T00:46:31;1.73;;;0.63;;
76576;SDS011;65441;44.748;37.600;2024-01-30T00:49:00;3.58;;;1.20;;
76576;SDS011;65441;44.748;37.600;2024-01-30T00:51:31;2.15;;;0.65;;
76576;SDS011;65441;44.748;37.600;2024-01-30T00:54:01;3.63;;;1.42;;
76576;SDS011;65441;44.748;37.600;2024-01-30T00:56:32;2.63;;;0.98;;
76576;SDS011;65441;44.748;37.600;2024-01-30T00:59:02;1.67;;;0.55;;
76576;SDS011;65441;44.748;37.600;2024-01-30T01:01:34;3.47;;;1.40;;
76576;SDS011;65441;44.748;37.600;2024-01-30T01:04:02;2.15;;;0.95;;
76576;SDS011;65441;44.748;37.600;2024-01-30T01:06:33;1.77;;;0.93;;
76576;SDS011;65441;44.748;37.600;2024-01-30T01:09:01;2.55;;;0.95;;
76576;SDS011;65441;44.748;37.600;2024-01-30T01:11:31;3.50;;;1.20;;
76576;SDS011;65441;44.748;37.600;2024-01-30T01:13:59;2.22;;;1.23;;
76576;SDS011;65441;44.748;37.600;2024-01-30T01:18:57;2.63;;;0.98;;
76576;SDS011;65441;44.748;37.600;2024-01-30T01:21:28;2.88;;;1.05;;
76576;SDS011;65441;44.748;37.600;2024-01-30T07:32:23;2.65;;;0.63;;
76576;SDS011;65441;44.748;37.600;2024-01-30T07:34:51;1.63;;;0.45;;
76576;SDS011;65441;44.748;37.600;2024-01-30T07:37:19;0.75;;;0.28;;
76576;SDS011;65441;44.748;37.600;2024-01-30T08:07:33;1.27;;;0.45;;
76576;SDS011;65441;44.748;37.600;2024-01-30T08:19:05;3.03;;;0.93;;
76576;SDS011;65441;44.748;37.600;2024-01-30T08:21:34;2.35;;;0.68;;
76576;SDS011;65441;44.748;37.600;2024-01-30T08:24:04;0.75;;;0.32;;
76576;SDS011;65441;44.748;37.600;2024-01-30T08:26:33;0.85;;;0.30;;
76576;SDS011;65441;44.748;37.600;2024-01-30T08:29:01;1.90;;;0.63;;
76576;SDS011;65441;44.748;37.600;2024-01-30T08:33:57;1.75;;;0.40;;
76576;SDS011;65441;44.748;37.600;2024-01-30T08:38:53;1.17;;;0.32;;
76576;SDS011;65441;44.748;37.600;2024-01-30T08:43:51;1.98;;;0.60;;
76576;SDS011;65441;44.748;37.600;2024-01-30T08:46:25;0.93;;;0.30;;
76576;SDS011;65441;44.748;37.600;2024-01-30T08:51:22;2.38;;;0.50;;
76576;SDS011;65441;44.748;37.600;2024-01-30T08:56:19;1.52;;;0.70;;
76576;SDS011;65441;44.748;37.600;2024-01-30T08:58:49;2.65;;;0.75;;
76576;SDS011;65441;44.748;37.600;2024-01-30T09:01:17;8.85;;;0.63;;
76576;SDS011;65441;44.748;37.600;2024-01-30T09:03:45;1.88;;;0.73;;
76576;SDS011;65441;44.748;37.600;2024-01-30T09:06:14;3.30;;;0.85;;
76576;SDS011;65441;44.748;37.600;2024-01-30T09:08:42;2.10;;;0.63;;
76576;SDS011;65441;44.748;37.600;2024-01-30T09:13:39;3.10;;;0.85;;
76576;SDS011;65441;44.748;37.600;2024-01-30T09:16:09;2.08;;;0.77;;
76576;SDS011;65441;44.748;37.600;2024-01-30T09:18:37;3.58;;;1.10;;
76576;SDS011;65441;44.748;37.600;2024-01-30T09:23:33;2.78;;;0.90;;
76576;SDS011;65441;44.748;37.600;2024-01-30T09:26:01;2.70;;;0.50;;
76576;SDS011;65441;44.748;37.600;2024-01-30T09:28:30;3.65;;;0.90;;
76576;SDS011;65441;44.748;37.600;2024-01-30T09:33:27;1.88;;;0.68;;
76576;SDS011;65441;44.748;37.600;2024-01-30T09:35:55;6.13;;;0.90;;
76576;SDS011;65441;44.748;37.600;2024-01-30T09:40:53;2.05;;;0.70;;
76576;SDS011;65441;44.748;37.600;2024-01-30T09:43:23;3.10;;;0.90;;
76576;SDS011;65441;44.748;37.600;2024-01-30T09:45:52;1.90;;;0.60;;
76576;SDS011;65441;44.748;37.600;2024-01-30T09:48:22;2.05;;;0.85;;
76576;SDS011;65441;44.748;37.600;2024-01-30T09:50:52;4.45;;;0.80;;
76576;SDS011;65441;44.748;37.600;2024-01-30T09:53:21;2.70;;;0.77;;
76576;SDS011;65441;44.748;37.600;2024-01-30T09:55:50;1.60;;;0.70;;
76576;SDS011;65441;44.748;37.600;2024-01-30T09:58:19;1.77;;;0.63;;
76576;SDS011;65441;44.748;37.600;2024-01-30T10:00:47;2.63;;;0.63;;
76576;SDS011;65441;44.748;37.600;2024-01-30T10:05:45;1.38;;;0.55;;
76576;SDS011;65441;44.748;37.600;2024-01-30T10:08:20;2.30;;;1.00;;
76576;SDS011;65441;44.748;37.600;2024-01-30T10:10:49;4.15;;;1.05;;
76576;SDS011;65441;44.748;37.600;2024-01-30T10:13:17;1.83;;;0.50;;
76576;SDS011;65441;44.748;37.600;2024-01-30T10:18:14;2.53;;;0.80;;
76576;SDS011;65441;44.748;37.600;2024-01-30T10:20:42;2.55;;;0.80;;
76576;SDS011;65441;44.748;37.600;2024-01-30T10:25:40;2.00;;;0.70;;
76576;SDS011;65441;44.748;37.600;2024-01-30T10:28:09;2.17;;;0.80;;
76576;SDS011;65441;44.748;37.600;2024-01-30T10:30:37;2.10;;;0.88;;
76576;SDS011;65441;44.748;37.600;2024-01-30T10:35:32;1.67;;;0.65;;
76576;SDS011;65441;44.748;37.600;2024-01-30T10:38:01;3.45;;;0.77;;
76576;SDS011;65441;44.748;37.600;2024-01-30T10:40:29;3.42;;;0.95;;
76576;SDS011;65441;44.748;37.600;2024-01-30T10:42:59;2.08;;;0.63;;
76576;SDS011;65441;44.748;37.600;2024-01-30T10:45:30;2.17;;;0.77;;
76576;SDS011;65441;44.748;37.600;2024-01-30T10:47:59;3.85;;;1.00;;
76576;SDS011;65441;44.748;37.600;2024-01-30T10:50:29;1.63;;;0.50;;
76576;SDS011;65441;44.748;37.600;2024-01-30T10:53:00;1.02;;;0.50;;
76576;SDS011;65441;44.748;37.600;2024-01-30T10:55:29;2.45;;;0.85;;
76576;SDS011;65441;44.748;37.600;2024-01-30T10:58:00;2.15;;;0.63;;
76576;SDS011;65441;44.748;37.600;2024-01-30T11:00:29;4.22;;;1.00;;
76576;SDS011;65441;44.748;37.600;2024-01-30T11:02:59;3.90;;;0.90;;
76576;SDS011;65441;44.748;37.600;2024-01-30T11:05:27;2.05;;;0.75;;
76576;SDS011;65441;44.748;37.600;2024-01-30T11:07:56;2.92;;;0.85;;
76576;SDS011;65441;44.748;37.600;2024-01-30T11:12:52;1.20;;;0.40;;
76576;SDS011;65441;44.748;37.600;2024-01-30T11:17:52;1.98;;;0.63;;
76576;SDS011;65441;44.748;37.600;2024-01-30T11:22:50;2.20;;;0.90;;
76576;SDS011;65441;44.748;37.600;2024-01-30T11:25:19;1.27;;;0.35;;
76576;SDS011;65441;44.748;37.600;2024-01-30T11:27:49;1.98;;;0.80;;
76576;SDS011;65441;44.748;37.600;2024-01-30T11:30:23;1.88;;;0.60;;
76576;SDS011;65441;44.748;37.600;2024-01-30T11:33:02;2.22;;;0.50;;
76576;SDS011;65441;44.748;37.600;2024-01-30T11:35:33;1.52;;;0.52;;
76576;SDS011;65441;44.748;37.600;2024-01-30T11:38:02;4.53;;;0.88;;
76576;SDS011;65441;44.748;37.600;2024-01-30T11:40:31;6.63;;;0.82;;
76576;SDS011;65441;44.748;37.600;2024-01-30T11:43:00;3.78;;;0.73;;
76576;SDS011;65441;44.748;37.600;2024-01-30T11:45:32;2.15;;;0.57;;
76576;SDS011;65441;44.748;37.600;2024-01-30T11:48:01;2.42;;;1.00;;
76576;SDS011;65441;44.748;37.600;2024-01-30T11:50:30;1.58;;;0.73;;
76576;SDS011;65441;44.748;37.600;2024-01-30T11:52:59;2.58;;;0.70;;
76576;SDS011;65441;44.748;37.600;2024-01-30T11:55:28;2.45;;;0.77;;
76576;SDS011;65441;44.748;37.600;2024-01-30T11:57:57;2.13;;;0.55;;
76576;SDS011;65441;44.748;37.600;2024-01-30T12:00:25;2.38;;;0.77;;
76576;SDS011;65441;44.748;37.600;2024-01-30T12:02:55;1.92;;;0.60;;
76576;SDS011;65441;44.748;37.600;2024-01-30T12:05:23;3.28;;;0.80;;
76576;SDS011;65441;44.748;37.600;2024-01-30T12:07:52;2.63;;;0.88;;
76576;SDS011;65441;44.748;37.600;2024-01-30T12:10:21;4.63;;;0.80;;
76576;SDS011;65441;44.748;37.600;2024-01-30T12:12:49;3.22;;;1.10;;
76576;SDS011;65441;44.748;37.600;2024-01-30T12:15:18;2.17;;;0.77;;
76576;SDS011;65441;44.748;37.600;2024-01-30T12:17:48;2.35;;;0.80;;
76576;SDS011;65441;44.748;37.600;2024-01-30T12:20:19;0.47;;;0.10;;
76576;SDS011;65441;44.748;37.600;2024-01-30T12:22:48;4.03;;;0.85;;
76576;SDS011;65441;44.748;37.600;2024-01-30T12:25:17;2.15;;;0.63;;
76576;SDS011;65441;44.748;37.600;2024-01-30T12:27:49;2.83;;;0.90;;
76576;SDS011;65441;44.748;37.600;2024-01-30T12:30:19;2.10;;;0.68;;
76576;SDS011;65441;44.748;37.600;2024-01-30T12:32:49;3.28;;;1.08;;
76576;SDS011;65441;44.748;37.600;2024-01-30T12:35:19;3.45;;;0.77;;
76576;SDS011;65441;44.748;37.600;2024-01-30T12:37:48;4.15;;;1.10;;
76576;SDS011;65441;44.748;37.600;2024-01-30T12:40:16;2.20;;;0.80;;
76576;SDS011;65441;44.748;37.600;2024-01-30T12:42:46;2.13;;;0.63;;
76576;SDS011;65441;44.748;37.600;2024-01-30T12:45:15;2.53;;;0.63;;
76576;SDS011;65441;44.748;37.600;2024-01-30T12:47:46;4.22;;;1.00;;
76576;SDS011;65441;44.748;37.600;2024-01-30T12:50:14;3.15;;;1.00;;
76576;SDS011;65441;44.748;37.600;2024-01-30T12:52:44;2.20;;;0.70;;
76576;SDS011;65441;44.748;37.600;2024-01-30T12:55:13;4.32;;;0.95;;
76576;SDS011;65441;44.748;37.600;2024-01-30T12:57:41;2.08;;;0.68;;
76576;SDS011;65441;44.748;37.600;2024-01-30T13:00:09;6.07;;;1.35;;
76576;SDS011;65441;44.748;37.600;2024-01-30T13:02:37;2.10;;;0.75;;
76576;SDS011;65441;44.748;37.600;2024-01-30T13:05:06;2.63;;;0.88;;
76576;SDS011;65441;44.748;37.600;2024-01-30T13:07:34;8.85;;;1.20;;
76576;SDS011;65441;44.748;37.600;2024-01-30T13:10:05;3.63;;;1.23;;
76576;SDS011;65441;44.748;37.600;2024-01-30T13:12:33;4.95;;;1.35;;
76576;SDS011;65441;44.748;37.600;2024-01-30T13:15:01;2.97;;;0.85;;
76576;SDS011;65441;44.748;37.600;2024-01-30T13:17:32;2.85;;;0.80;;
76576;SDS011;65441;44.748;37.600;2024-01-30T13:22:30;3.60;;;0.93;;
76576;SDS011;65441;44.748;37.600;2024-01-30T13:27:27;2.17;;;0.63;;
76576;SDS011;65441;44.748;37.600;2024-01-30T13:29:55;4.28;;;1.48;;
76576;SDS011;65441;44.748;37.600;2024-01-30T13:34:51;1.95;;;0.90;;
76576;SDS011;65441;44.748;37.600;2024-01-30T13:39:47;4.32;;;1.30;;
76576;SDS011;65441;44.748;37.600;2024-01-30T13:44:44;2.22;;;0.88;;
76576;SDS011;65441;44.748;37.600;2024-01-30T13:47:13;7.70;;;1.20;;
76576;SDS011;65441;44.748;37.600;2024-01-30T13:52:09;4.13;;;1.33;;
76576;SDS011;65441;44.748;37.600;2024-01-30T13:57:05;4.25;;;1.00;;
76576;SDS011;65441;44.748;37.600;2024-01-30T13:59:34;3.10;;;1.27;;
76576;SDS011;65441;44.748;37.600;2024-01-30T14:04:34;3.95;;;1.05;;
76576;SDS011;65441;44.748;37.600;2024-01-30T14:07:03;5.85;;;1.35;;
76576;SDS011;65441;44.748;37.600;2024-01-30T14:09:32;5.28;;;1.27;;
76576;SDS011;65441;44.748;37.600;2024-01-30T14:12:00;3.03;;;1.05;;
76576;SDS011;65441;44.748;37.600;2024-01-30T14:14:29;3.88;;;1.10;;
76576;SDS011;65441;44.748;37.600;2024-01-30T14:16:57;4.43;;;1.50;;
76576;SDS011;65441;44.748;37.600;2024-01-30T14:19:27;4.20;;;1.60;;
76576;SDS011;65441;44.748;37.600;2024-01-30T14:21:55;4.30;;;1.52;;
76576;SDS011;65441;44.748;37.600;2024-01-30T14:26:53;4.45;;;1.42;;
76576;SDS011;65441;44.748;37.600;2024-01-30T14:29:24;6.68;;;1.35;;
76576;SDS011;65441;44.748;37.600;2024-01-30T14:31:52;4.13;;;1.20;;
76576;SDS011;65441;44.748;37.600;2024-01-30T14:34:21;5.18;;;1.80;;
76576;SDS011;65441;44.748;37.600;2024-01-30T14:39:18;3.30;;;1.13;;
76576;SDS011;65441;44.748;37.600;2024-01-30T14:41:46;6.13;;;1.23;;
76576;SDS011;65441;44.748;37.600;2024-01-30T14:44:15;3.13;;;1.10;;
76576;SDS011;65441;44.748;37.600;2024-01-30T14:46:43;3.47;;;0.63;;
76576;SDS011;65441;44.748;37.600;2024-01-30T14:49:12;3.60;;;1.17;;
76576;SDS011;65441;44.748;37.600;2024-01-30T14:51:42;9.65;;;1.65;;
76576;SDS011;65441;44.748;37.600;2024-01-30T14:56:40;6.18;;;1.80;;
76576;SDS011;65441;44.748;37.600;2024-01-30T15:01:36;2.92;;;1.00;;
76576;SDS011;65441;44.748;37.600;2024-01-30T15:06:32;1.08;;;0.08;;
76576;SDS011;65441;44.748;37.600;2024-01-30T15:11:30;3.30;;;1.05;;
76576;SDS011;65441;44.748;37.600;2024-01-30T15:13:59;3.10;;;0.95;;
76576;SDS011;65441;44.748;37.600;2024-01-30T15:16:27;3.42;;;1.00;;
76576;SDS011;65441;44.748;37.600;2024-01-30T15:18:55;2.72;;;0.90;;
76576;SDS011;65441;44.748;37.600;2024-01-30T15:21:23;5.32;;;1.75;;
76576;SDS011;65441;44.748;37.600;2024-01-30T15:26:19;5.85;;;1.58;;
76576;SDS011;65441;44.748;37.600;2024-01-30T15:28:49;6.93;;;1.15;;
76576;SDS011;65441;44.748;37.600;2024-01-30T15:31:18;3.15;;;0.80;;
76576;SDS011;65441;44.748;37.600;2024-01-30T15:33:46;3.28;;;1.00;;
76576;SDS011;65441;44.748;37.600;2024-01-30T15:36:14;3.92;;;1.13;;
76576;SDS011;65441;44.748;37.600;2024-01-30T15:38:45;3.85;;;1.30;;
76576;SDS011;65441;44.748;37.600;2024-01-30T15:41:13;3.50;;;1.15;;
76576;SDS011;65441;44.748;37.600;2024-01-30T15:46:11;0.32;;;0.20;;
76576;SDS011;65441;44.748;37.600;2024-01-30T15:48:40;3.03;;;1.02;;
76576;SDS011;65441;44.748;37.600;2024-01-30T15:53:35;4.88;;;1.70;;
76576;SDS011;65441;44.748;37.600;2024-01-30T15:58:32;2.83;;;0.73;;
76576;SDS011;65441;44.748;37.600;2024-01-30T16:01:20;2.90;;;0.93;;
76576;SDS011;65441;44.748;37.600;2024-01-30T16:04:07;8.57;;;1.30;;
76576;SDS011;65441;44.748;37.600;2024-01-30T16:06:55;5.05;;;0.93;;
76576;SDS011;65441;44.748;37.600;2024-01-30T16:09:44;4.07;;;0.93;;
76576;SDS011;65441;44.748;37.600;2024-01-30T16:12:31;4.78;;;1.13;;
76576;SDS011;65441;44.748;37.600;2024-01-30T16:15:19;3.28;;;1.08;;
76576;SDS011;65441;44.748;37.600;2024-01-30T16:17:48;3.10;;;1.23;;
76576;SDS011;65441;44.748;37.600;2024-01-30T16:20:35;3.20;;;0.98;;
76576;SDS011;65441;44.748;37.600;2024-01-30T16:23:22;3.58;;;1.13;;
76576;SDS011;65441;44.748;37.600;2024-01-30T16:26:12;3.70;;;1.33;;
76576;SDS011;65441;44.748;37.600;2024-01-30T16:29:02;5.78;;;1.30;;
76576;SDS011;65441;44.748;37.600;2024-01-30T16:31:48;4.20;;;1.08;;
76576;SDS011;65441;44.748;37.600;2024-01-30T16:34:37;5.35;;;1.08;;
76576;SDS011;65441;44.748;37.600;2024-01-30T16:37:08;4.20;;;1.08;;
76576;SDS011;65441;44.748;37.600;2024-01-30T16:39:41;3.58;;;1.15;;
76576;SDS011;65441;44.748;37.600;2024-01-30T16:42:12;5.10;;;1.25;;
76576;SDS011;65441;44.748;37.600;2024-01-30T16:44:40;7.78;;;1.55;;
76576;SDS011;65441;44.748;37.600;2024-01-30T16:47:10;5.32;;;1.40;;
76576;SDS011;65441;44.748;37.600;2024-01-30T16:52:08;2.75;;;0.85;;
76576;SDS011;65441;44.748;37.600;2024-01-30T16:54:39;3.80;;;1.10;;
76576;SDS011;65441;44.748;37.600;2024-01-30T16:57:07;4.30;;;1.48;;
76576;SDS011;65441;44.748;37.600;2024-01-30T16:59:35;6.40;;;1.50;;
76576;SDS011;65441;44.748;37.600;2024-01-30T17:02:07;4.82;;;1.50;;
76576;SDS011;65441;44.748;37.600;2024-01-30T17:04:39;8.35;;;1.83;;
76576;SDS011;65441;44.748;37.600;2024-01-30T17:07:08;3.42;;;1.25;;
76576;SDS011;65441;44.748;37.600;2024-01-30T17:09:37;5.22;;;1.08;;
76576;SDS011;65441;44.748;37.600;2024-01-30T17:12:06;5.18;;;1.33;;
76576;SDS011;65441;44.748;37.600;2024-01-30T17:14:36;4.55;;;1.17;;
76576;SDS011;65441;44.748;37.600;2024-01-30T17:17:07;1.70;;;0.75;;
76576;SDS011;65441;44.748;37.600;2024-01-30T17:19:39;4.25;;;1.38;;
76576;SDS011;65441;44.748;37.600;2024-01-30T17:22:08;3.10;;;1.05;;
76576;SDS011;65441;44.748;37.600;2024-01-30T17:24:37;7.72;;;1.90;;
76576;SDS011;65441;44.748;37.600;2024-01-30T17:27:05;4.82;;;1.63;;
76576;SDS011;65441;44.748;37.600;2024-01-30T17:29:37;4.10;;;1.60;;
76576;SDS011;65441;44.748;37.600;2024-01-30T17:32:06;3.90;;;0.90;;
76576;SDS011;65441;44.748;37.600;2024-01-30T17:34:36;2.35;;;0.93;;
76576;SDS011;65441;44.748;37.600;2024-01-30T17:39:33;3.42;;;0.95;;
76576;SDS011;65441;44.748;37.600;2024-01-30T17:42:01;2.63;;;0.82;;
76576;SDS011;65441;44.748;37.600;2024-01-30T17:44:32;6.18;;;1.88;;
76576;SDS011;65441;44.748;37.600;2024-01-30T17:47:08;5.35;;;1.45;;
76576;SDS011;65441;44.748;37.600;2024-01-30T17:49:36;3.83;;;1.35;;
76576;SDS011;65441;44.748;37.600;2024-01-30T17:52:06;6.20;;;1.55;;
76576;SDS011;65441;44.748;37.600;2024-01-30T17:54:36;10.32;;;1.58;;
76576;SDS011;65441;44.748;37.600;2024-01-30T17:57:06;2.83;;;1.25;;
76576;SDS011;65441;44.748;37.600;2024-01-30T17:59:36;4.45;;;1.08;;
76576;SDS011;65441;44.748;37.600;2024-01-30T18:02:05;3.65;;;1.20;;
76576;SDS011;65441;44.748;37.600;2024-01-30T18:04:36;4.63;;;1.40;;
76576;SDS011;65441;44.748;37.600;2024-01-30T18:07:06;3.70;;;1.15;;
76576;SDS011;65441;44.748;37.600;2024-01-30T18:09:35;9.13;;;1.13;;
76576;SDS011;65441;44.748;37.600;2024-01-30T18:12:03;1.88;;;0.90;;
76576;SDS011;65441;44.748;37.600;2024-01-30T18:14:32;3.95;;;1.42;;
76576;SDS011;65441;44.748;37.600;2024-01-30T18:19:28;3.20;;;0.90;;
76576;SDS011;65441;44.748;37.600;2024-01-30T18:24:26;3.28;;;1.15;;
76576;SDS011;65441;44.748;37.600;2024-01-30T18:26:54;2.30;;;0.95;;
76576;SDS011;65441;44.748;37.600;2024-01-30T18:29:22;5.65;;;1.70;;
76576;SDS011;65441;44.748;37.600;2024-01-30T18:31:51;3.33;;;1.08;;
76576;SDS011;65441;44.748;37.600;2024-01-30T18:36:47;1.98;;;0.85;;
76576;SDS011;65441;44.748;37.600;2024-01-30T18:39:15;3.67;;;1.23;;
76576;SDS011;65441;44.748;37.600;2024-01-30T18:41:46;5.55;;;1.60;;
76576;SDS011;65441;44.748;37.600;2024-01-30T18:44:15;7.43;;;1.48;;
76576;SDS011;65441;44.748;37.600;2024-01-30T18:46:43;3.72;;;1.50;;
76576;SDS011;65441;44.748;37.600;2024-01-30T18:49:12;5.00;;;1.65;;
76576;SDS011;65441;44.748;37.600;2024-01-30T18:54:08;5.65;;;1.40;;
76576;SDS011;65441;44.748;37.600;2024-01-30T18:56:38;3.90;;;1.08;;
76576;SDS011;65441;44.748;37.600;2024-01-30T19:01:35;2.50;;;1.00;;
76576;SDS011;65441;44.748;37.600;2024-01-30T19:04:06;8.35;;;1.58;;
76576;SDS011;65441;44.748;37.600;2024-01-30T19:06:34;4.28;;;1.45;;
76576;SDS011;65441;44.748;37.600;2024-01-30T19:11:30;8.38;;;1.52;;
76576;SDS011;65441;44.748;37.600;2024-01-30T19:13:59;4.47;;;1.20;;
76576;SDS011;65441;44.748;37.600;2024-01-30T19:16:29;6.43;;;1.70;;
76576;SDS011;65441;44.748;37.600;2024-01-30T19:18:57;6.68;;;1.38;;
76576;SDS011;65441;44.748;37.600;2024-01-30T19:21:25;6.25;;;1.58;;
76576;SDS011;65441;44.748;37.600;2024-01-30T19:23:54;7.47;;;1.65;;
76576;SDS011;65441;44.748;37.600;2024-01-30T19:26:25;5.53;;;1.55;;
76576;SDS011;65441;44.748;37.600;2024-01-30T19:31:21;6.50;;;2.60;;
76576;SDS011;65441;44.748;37.600;2024-01-30T19:33:51;17.30;;;2.30;;
76576;SDS011;65441;44.748;37.600;2024-01-30T19:36:19;7.25;;;1.60;;
76576;SDS011;65441;44.748;37.600;2024-01-30T19:41:15;3.35;;;1.20;;
76576;SDS011;65441;44.748;37.600;2024-01-30T19:43:43;2.58;;;1.02;;
76576;SDS011;65441;44.748;37.600;2024-01-30T19:48:40;3.85;;;1.45;;
76576;SDS011;65441;44.748;37.600;2024-01-30T19:51:10;5.20;;;1.52;;
76576;SDS011;65441;44.748;37.600;2024-01-30T19:53:38;3.15;;;1.30;;
76576;SDS011;65441;44.748;37.600;2024-01-30T19:56:07;4.57;;;1.58;;
76576;SDS011;65441;44.748;37.600;2024-01-30T20:01:03;6.22;;;1.90;;
76576;SDS011;65441;44.748;37.600;2024-01-30T20:03:32;3.50;;;1.23;;
76576;SDS011;65441;44.748;37.600;2024-01-30T20:06:00;3.03;;;1.17;;
76576;SDS011;65441;44.748;37.600;2024-01-30T20:08:31;5.15;;;1.27;;
76576;SDS011;65441;44.748;37.600;2024-01-30T20:11:00;3.75;;;1.30;;
76576;SDS011;65441;44.748;37.600;2024-01-30T20:13:30;3.08;;;1.40;;
76576;SDS011;65441;44.748;37.600;2024-01-30T20:16:03;3.80;;;1.20;;
76576;SDS011;65441;44.748;37.600;2024-01-30T20:18:31;2.22;;;0.80;;
76576;SDS011;65441;44.748;37.600;2024-01-30T20:23:28;3.08;;;0.95;;
76576;SDS011;65441;44.748;37.600;2024-01-30T20:25:58;4.07;;;1.20;;
76576;SDS011;65441;44.748;37.600;2024-01-30T20:28:29;4.68;;;1.23;;
76576;SDS011;65441;44.748;37.600;2024-01-30T20:30:58;5.32;;;1.88;;
76576;SDS011;65441;44.748;37.600;2024-01-30T20:33:26;2.90;;;1.30;;
76576;SDS011;65441;44.748;37.600;2024-01-30T20:35:54;2.90;;;1.05;;
76576;SDS011;65441;44.748;37.600;2024-01-30T20:38:23;9.50;;;2.00;;
76576;SDS011;65441;44.748;37.600;2024-01-30T20:43:20;3.63;;;1.13;;
76576;SDS011;65441;44.748;37.600;2024-01-30T20:45:48;7.22;;;1.60;;
76576;SDS011;65441;44.748;37.600;2024-01-30T20:48:17;5.95;;;1.08;;
76576;SDS011;65441;44.748;37.600;2024-01-30T20:50:46;6.55;;;1.60;;
76576;SDS011;65441;44.748;37.600;2024-01-30T20:53:15;9.40;;;1.30;;
76576;SDS011;65441;44.748;37.600;2024-01-30T21:00:40;6.53;;;1.52;;
76576;SDS011;65441;44.748;37.600;2024-01-30T21:03:09;3.17;;;1.05;;
76576;SDS011;65441;44.748;37.600;2024-01-30T21:05:37;5.00;;;1.23;;
76576;SDS011;65441;44.748;37.600;2024-01-30T21:08:10;3.33;;;0.98;;
76576;SDS011;65441;44.748;37.600;2024-01-30T21:10:38;2.85;;;0.95;;
76576;SDS011;65441;44.748;37.600;2024-01-30T21:13:06;4.93;;;1.20;;
76576;SDS011;65441;44.748;37.600;2024-01-30T21:18:04;11.30;;;1.50;;
76576;SDS011;65441;44.748;37.600;2024-01-30T21:20:34;5.88;;;1.73;;
76576;SDS011;65441;44.748;37.600;2024-01-30T21:25:30;3.20;;;1.60;;
76576;SDS011;65441;44.748;37.600;2024-01-30T21:32:55;5.95;;;1.65;;
76576;SDS011;65441;44.748;37.600;2024-01-30T21:35:24;6.80;;;1.85;;
76576;SDS011;65441;44.748;37.600;2024-01-30T21:37:54;5.72;;;1.95;;
76576;SDS011;65441;44.748;37.600;2024-01-30T21:40:22;7.05;;;1.85;;
76576;SDS011;65441;44.748;37.600;2024-01-30T21:45:19;4.50;;;1.55;;
76576;SDS011;65441;44.748;37.600;2024-01-30T21:47:49;6.20;;;2.28;;
76576;SDS011;65441;44.748;37.600;2024-01-30T21:52:48;8.00;;;2.17;;
76576;SDS011;65441;44.748;37.600;2024-01-30T21:55:18;7.00;;;2.30;;
76576;SDS011;65441;44.748;37.600;2024-01-30T21:57:46;9.02;;;2.50;;
76576;SDS011;65441;44.748;37.600;2024-01-30T22:00:17;9.23;;;2.58;;
76576;SDS011;65441;44.748;37.600;2024-01-30T22:02:45;4.88;;;2.10;;
76576;SDS011;65441;44.748;37.600;2024-01-30T22:07:42;4.55;;;1.50;;
76576;SDS011;65441;44.748;37.600;2024-01-30T22:10:12;6.47;;;2.38;;
76576;SDS011;65441;44.748;37.600;2024-01-30T22:12:40;6.18;;;1.77;;
76576;SDS011;65441;44.748;37.600;2024-01-30T22:17:38;7.55;;;2.00;;
76576;SDS011;65441;44.748;37.600;2024-01-30T22:22:35;4.93;;;1.35;;
76576;SDS011;65441;44.748;37.600;2024-01-30T22:25:04;6.05;;;2.45;;
76576;SDS011;65441;44.748;37.600;2024-01-30T22:27:34;5.57;;;1.92;;
76576;SDS011;65441;44.748;37.600;2024-01-30T22:30:03;7.03;;;2.80;;
76576;SDS011;65441;44.748;37.600;2024-01-30T22:32:32;7.00;;;2.58;;
76576;SDS011;65441;44.748;37.600;2024-01-30T22:35:01;5.22;;;2.13;;
76576;SDS011;65441;44.748;37.600;2024-01-30T22:37:35;6.53;;;2.17;;
76576;SDS011;65441;44.748;37.600;2024-01-30T22:40:04;4.28;;;1.30;;
76576;SDS011;65441;44.748;37.600;2024-01-30T22:42:35;5.88;;;2.00;;
76576;SDS011;65441;44.748;37.600;2024-01-30T22:45:03;9.20;;;1.67;;
76576;SDS011;65441;44.748;37.600;2024-01-30T22:47:35;6.93;;;1.85;;
76576;SDS011;65441;44.748;37.600;2024-01-30T22:50:03;4.10;;;1.50;;
76576;SDS011;65441;44.748;37.600;2024-01-30T22:52:32;4.57;;;1.63;;
76576;SDS011;65441;44.748;37.600;2024-01-30T22:57:28;6.05;;;2.20;;
76576;SDS011;65441;44.748;37.600;2024-01-30T22:59:59;5.85;;;2.08;;
76576;SDS011;65441;44.748;37.600;2024-01-30T23:02:36;4.38;;;1.35;;
76576;SDS011;65441;44.748;37.600;2024-01-30T23:05:07;3.92;;;1.75;;
76576;SDS011;65441;44.748;37.600;2024-01-30T23:07:36;5.18;;;1.98;;
76576;SDS011;65441;44.748;37.600;2024-01-30T23:10:09;6.50;;;2.13;;
76576;SDS011;65441;44.748;37.600;2024-01-30T23:12:39;6.18;;;2.10;;
76576;SDS011;65441;44.748;37.600;2024-01-30T23:15:11;3.42;;;1.05;;
76576;SDS011;65441;44.748;37.600;2024-01-30T23:17:41;5.22;;;1.65;;
76576;SDS011;65441;44.748;37.600;2024-01-30T23:20:10;4.35;;;1.67;;
76576;SDS011;65441;44.748;37.600;2024-01-30T23:22:41;6.28;;;2.20;;
76576;SDS011;65441;44.748;37.600;2024-01-30T23:27:41;8.25;;;1.48;;
76576;SDS011;65441;44.748;37.600;2024-01-30T23:30:09;4.18;;;1.45;;
76576;SDS011;65441;44.748;37.600;2024-01-30T23:32:40;6.68;;;1.70;;
76576;SDS011;65441;44.748;37.600;2024-01-30T23:37:36;3.05;;;1.27;;
76576;SDS011;65441;44.748;37.600;2024-01-30T23:40:08;6.95;;;2.15;;
76576;SDS011;65441;44.748;37.600;2024-01-30T23:42:37;6.72;;;2.15;;
76576;SDS011;65441;44.748;37.600;2024-01-30T23:47:40;5.53;;;1.67;;
76576;SDS011;65441;44.748;37.600;2024-01-30T23:50:09;4.05;;;0.93;;
76576;SDS011;65441;44.748;37.600;2024-01-30T23:52:41;8.68;;;1.75;;
76576;SDS011;65441;44.748;37.600;2024-01-30T23:55:11;3.22;;;1.30;;
76576;SDS011;65441;44.748;37.600;2024-01-30T23:57:40;2.53;;;0.95;;
